Terminal Aerodrome Forecast
Issued by NWS Wilmington, OH

Current Version | Previous Version | Text Only | Print | Product List | Glossary Off
Versions: 1 2 3 4 5 6 7 8 9 10 11 12 13 14 15

000
FTUS41 KILN 152300
TAFCMH
TAF
KCMH 152320Z 1600/1624 33012KT P6SM BKN050
     FM160200 34006KT P6SM FEW050
     FM160500 VRB02KT P6SM SKC
     FM161400 13009KT P6SM FEW250=

USA.gov is the U.S. government's official web portal to all federal, state and local government web resources and services.